Portada
METAR-TAF:

METAR-TAF

Aeroports :

Eastern Slopes Regional Airport

Fryeburg, Maine, Estats Units d'Amèrica

latitud: 43-59-21N, longitud: 070-57-01W, altitud: 137 m

Observació

L'informe es va fer fa 29 minuts, a les 23:54 UTC
Vent 10 kt del Oest/Nord-Oest amb ràfegues de 19 kt, variant entre Oest/Sud-Oest i Nord-Oest
Temperatura 2°C
Humitat 60%
Pressió 1002 hPa
Visibilitat: 16.1 km
Cel ennuvolat a una alçada de 3800 ft

METAR: KIZG 222354Z AUTO 29010G19KT 250V310 10SM BKN038 02/M05 A2959 RMK AO2 SLP026 60001 T00221050 10056 20022 53045

Hora: 19:23 (00:23 UTC)


TAF: manca

Observacions i pronòstics meteorològics de més de 4000 aeroports (METAR i TAF).

Les estacions disponibles són els punts grocs i vermells al mapa.

Posi el ratolí al punt desitjat per veure el nom de l'estació.

Feu clic per veure les observacions i els pronòstics meteorològics.

Per canviar el mapa: feu clic els botons verds amb una creu de color negre per apropar; al botó verd amb un guió per allunyar la imatge; o en les fletxes verdes per a mapes adjacents.


METAR-TAF: